createdAt,value
2023-04-02T00:01:54.599Z,96656.06
2023-04-02T00:04:23.419Z,96653.84
2023-04-02T00:06:49.869Z,96655.63
2023-04-02T00:09:25.093Z,96659.31
2023-04-02T00:11:51.498Z,96652.69
2023-04-02T00:14:17.958Z,96656.19
2023-04-02T00:16:44.451Z,96654.34
2023-04-02T00:19:18.364Z,96652.84
2023-04-02T00:21:44.956Z,96651.59
2023-04-02T00:24:11.397Z,96657.75
2023-04-02T00:26:37.999Z,96654.63
2023-04-02T00:29:04.590Z,96662.50
2023-04-02T00:31:31.060Z,96651.06
2023-04-02T00:33:57.514Z,96647.94
2023-04-02T00:36:23.951Z,96648.53
2023-04-02T00:38:50.380Z,96649.16
2023-04-02T00:41:16.891Z,96646.25
2023-04-02T00:43:43.337Z,96644.16
2023-04-02T00:46:09.864Z,96648.72
2023-04-02T00:48:36.366Z,96643.34
2023-04-02T00:51:02.769Z,96634.91
2023-04-02T00:53:29.201Z,96640.69
2023-04-02T00:55:55.648Z,96645.06
2023-04-02T00:58:22.267Z,96641.97
2023-04-02T01:00:50.629Z,96644.94
2023-04-02T01:03:17.233Z,96641.91
2023-04-02T01:05:43.947Z,96652.00
2023-04-02T01:11:01.358Z,96653.25
2023-04-02T01:13:27.823Z,96650.97
2023-04-02T01:15:54.271Z,96653.91
2023-04-02T01:18:25.290Z,96659.84
2023-04-02T01:20:51.680Z,96652.38
2023-04-02T01:23:18.328Z,96647.19
2023-04-02T01:25:45.925Z,96650.22
2023-04-02T01:28:19.898Z,96648.97
2023-04-02T01:30:46.227Z,96649.19
2023-04-02T01:33:12.594Z,96646.28
2023-04-02T01:35:39.482Z,96643.00
2023-04-02T01:38:05.978Z,96639.66
2023-04-02T01:40:32.406Z,96645.84
2023-04-02T01:42:58.854Z,96652.28
2023-04-02T01:48:10.524Z,96663.91
2023-04-02T01:50:37.045Z,96661.72
2023-04-02T01:53:03.589Z,96668.78
2023-04-02T01:55:30.221Z,96668.81
2023-04-02T01:57:56.804Z,96666.34
2023-04-02T02:00:23.356Z,96676.06
2023-04-02T02:02:49.806Z,96676.09
2023-04-02T02:05:17.573Z,96678.56
2023-04-02T02:07:44.070Z,96679.16
2023-04-02T02:10:10.760Z,96677.31
2023-04-02T02:15:18.560Z,96689.13
2023-04-02T02:17:45.156Z,96694.72
2023-04-02T02:20:11.602Z,96686.28
2023-04-02T02:22:38.079Z,96688.13
2023-04-02T02:25:04.586Z,96692.94
2023-04-02T02:30:11.439Z,96699.16
2023-04-02T02:32:37.950Z,96704.13
2023-04-02T02:35:04.464Z,96700.84
2023-04-02T02:37:33.923Z,96701.44
2023-04-02T02:40:00.363Z,96703.50
2023-04-02T02:42:26.902Z,96702.28
2023-04-02T02:44:53.380Z,96698.59
2023-04-02T02:47:19.896Z,96702.72
2023-04-02T02:49:46.451Z,96699.59
2023-04-02T02:52:12.920Z,96708.03
2023-04-02T02:54:39.425Z,96697.94
2023-04-02T02:57:05.845Z,96700.84
2023-04-02T02:59:34.341Z,96701.06
2023-04-02T03:02:00.837Z,96711.38
2023-04-02T03:04:27.425Z,96706.81
2023-04-02T03:07:01.298Z,96707.88
2023-04-02T03:09:29.936Z,96715.88
2023-04-02T03:11:58.037Z,96712.38
2023-04-02T03:14:24.684Z,96718.97
2023-04-02T03:16:51.217Z,96712.97
2023-04-02T03:19:17.682Z,96712.53
2023-04-02T03:21:44.148Z,96708.81
2023-04-02T03:24:10.630Z,96711.72
2023-04-02T03:26:37.320Z,96716.06
2023-04-02T03:29:07.639Z,96715.28
2023-04-02T03:31:34.136Z,96718.13
2023-04-02T03:34:00.591Z,96720.63
2023-04-02T03:36:27.036Z,96718.78
2023-04-02T03:38:53.614Z,96719.34
2023-04-02T03:41:20.071Z,96716.28
2023-04-02T03:43:46.689Z,96716.28
2023-04-02T03:46:13.275Z,96714.41
2023-04-02T03:48:39.735Z,96718.53
2023-04-02T03:51:06.276Z,96725.94
2023-04-02T03:56:14.094Z,96725.91
2023-04-02T03:58:40.608Z,96719.75
2023-04-02T04:01:07.031Z,96722.44
2023-04-02T04:03:33.469Z,96719.56
2023-04-02T04:05:59.898Z,96723.72
2023-04-02T04:08:26.330Z,96719.63
2023-04-02T04:10:52.930Z,96722.31
2023-04-02T04:13:19.445Z,96723.13
2023-04-02T04:15:46.003Z,96717.75
2023-04-02T04:18:12.491Z,96722.09
2023-04-02T04:20:39.004Z,96726.00
2023-04-02T04:23:05.616Z,96733.22
2023-04-02T04:25:32.091Z,96739.66
2023-04-02T04:27:58.615Z,96737.59
2023-04-02T04:30:25.174Z,96732.84
2023-04-02T04:32:51.951Z,96742.53
2023-04-02T04:35:19.876Z,96738.38
2023-04-02T04:37:46.328Z,96733.63
2023-04-02T04:40:12.954Z,96722.47
2023-04-02T04:42:39.585Z,96736.69
2023-04-02T04:45:06.128Z,96738.38
2023-04-02T04:47:32.597Z,96735.31
2023-04-02T04:50:00.341Z,96737.81
2023-04-02T04:52:26.838Z,96744.47
2023-04-02T04:54:53.338Z,96755.66
2023-04-02T04:57:19.783Z,96747.19
2023-04-02T04:59:46.457Z,96749.88
2023-04-02T05:02:12.861Z,96752.56
2023-04-02T05:04:39.291Z,96759.59
2023-04-02T05:07:05.751Z,96757.94
2023-04-02T05:09:32.169Z,96757.53
2023-04-02T05:11:58.653Z,96760.44
2023-04-02T05:14:25.158Z,96756.69
2023-04-02T05:16:51.633Z,96759.78
2023-04-02T05:19:18.113Z,96761.47
2023-04-02T05:21:44.584Z,96758.13
2023-04-02T05:24:11.071Z,96762.91
2023-04-02T05:26:37.534Z,96766.19
2023-04-02T05:29:04.017Z,96765.97
2023-04-02T05:31:30.516Z,96769.50
2023-04-02T05:33:57.139Z,96769.50
2023-04-02T05:36:26.236Z,96771.97
2023-04-02T05:38:52.750Z,96767.00
2023-04-02T05:41:19.262Z,96774.00
2023-04-02T05:43:45.818Z,96776.88
2023-04-02T05:46:12.319Z,96786.16
2023-04-02T05:48:38.748Z,96780.34
2023-04-02T05:51:05.220Z,96785.94
2023-04-02T05:53:33.341Z,96786.94
2023-04-02T05:55:59.833Z,96786.72
2023-04-02T06:00:55.638Z,96790.19
2023-04-02T06:03:22.133Z,96794.13
2023-04-02T06:05:48.598Z,96807.34
2023-04-02T06:08:15.112Z,96792.03
2023-04-02T06:10:41.681Z,96794.94
2023-04-02T06:13:08.365Z,96795.34
2023-04-02T06:15:37.251Z,96797.38
2023-04-02T06:18:03.770Z,96790.31
2023-04-02T06:20:30.240Z,96799.16
2023-04-02T06:23:01.144Z,96798.56
2023-04-02T06:25:27.574Z,96804.34
2023-04-02T06:27:54.000Z,96810.13
2023-04-02T06:30:20.483Z,96820.53
2023-04-02T06:32:46.944Z,96811.41
2023-04-02T06:35:13.322Z,96824.13
2023-04-02T06:37:39.865Z,96830.53
2023-04-02T06:40:06.289Z,96833.63
2023-04-02T06:42:32.612Z,96830.69
2023-04-02T06:44:59.088Z,96831.22
2023-04-02T06:47:25.657Z,96831.66
2023-04-02T06:49:52.145Z,96833.91
2023-04-02T06:52:18.675Z,96838.03
2023-04-02T06:54:45.128Z,96830.56
2023-04-02T06:57:11.676Z,96833.44
2023-04-02T06:59:40.273Z,96829.75
2023-04-02T07:02:06.842Z,96830.19
2023-04-02T07:04:33.520Z,96843.59
2023-04-02T07:07:00.022Z,96835.69
2023-04-02T07:09:26.556Z,96843.38
2023-04-02T07:11:52.996Z,96833.22
2023-04-02T07:14:20.462Z,96836.53
2023-04-02T07:16:57.893Z,96839.81
2023-04-02T07:19:24.294Z,96851.53
2023-04-02T07:21:50.705Z,96850.81
2023-04-02T07:24:17.168Z,96845.00
2023-04-02T07:26:43.623Z,96853.16
2023-04-02T07:29:10.028Z,96853.44
2023-04-02T07:31:36.507Z,96854.66
2023-04-02T07:34:03.042Z,96850.75
2023-04-02T07:36:29.400Z,96858.09
2023-04-02T07:38:55.745Z,96845.47
2023-04-02T07:41:22.098Z,96853.06
2023-04-02T07:43:48.431Z,96865.13
2023-04-02T07:46:14.876Z,96865.28
2023-04-02T07:48:41.284Z,96861.41
2023-04-02T07:51:07.733Z,96868.38
2023-04-02T07:53:34.085Z,96859.03
2023-04-02T07:56:00.440Z,96865.19
2023-04-02T07:58:26.776Z,96864.13
2023-04-02T08:01:01.484Z,96867.72
2023-04-02T08:03:27.888Z,96877.19
2023-04-02T08:05:54.450Z,96878.41
2023-04-02T08:08:20.812Z,96883.13
2023-04-02T08:10:47.243Z,96881.44
2023-04-02T08:13:13.683Z,96884.97
2023-04-02T08:15:40.026Z,96884.53
2023-04-02T08:18:06.559Z,96887.84
2023-04-02T08:20:33.018Z,96888.69
2023-04-02T08:23:02.034Z,96888.50
2023-04-02T08:25:28.591Z,96886.25
2023-04-02T08:27:54.979Z,96892.84
2023-04-02T08:30:21.353Z,96893.06
2023-04-02T08:32:47.815Z,96902.63
2023-04-02T08:35:14.254Z,96899.16
2023-04-02T08:37:40.719Z,96911.94
2023-04-02T08:40:07.101Z,96909.91
2023-04-02T08:42:33.484Z,96912.16
2023-04-02T08:45:03.872Z,96911.41
2023-04-02T08:47:32.419Z,96924.63
2023-04-02T08:50:06.056Z,96914.25
2023-04-02T08:52:32.563Z,96914.69
2023-04-02T08:54:59.253Z,96908.88
2023-04-02T08:57:25.931Z,96913.22
2023-04-02T08:59:52.695Z,96921.88
2023-04-02T09:02:22.101Z,96916.94
2023-04-02T09:04:48.614Z,96916.50
2023-04-02T09:07:15.045Z,96912.19
2023-04-02T09:09:41.471Z,96913.81
2023-04-02T09:12:07.951Z,96914.03
2023-04-02T09:14:34.354Z,96923.75
2023-04-02T09:17:00.826Z,96925.63
2023-04-02T09:19:27.309Z,96923.56
2023-04-02T09:21:53.771Z,96919.03
2023-04-02T09:24:20.242Z,96924.34
2023-04-02T09:26:46.706Z,96932.00
2023-04-02T09:29:13.209Z,96932.41
2023-04-02T09:31:39.698Z,96936.13
2023-04-02T09:34:06.139Z,96939.91
2023-04-02T09:36:32.592Z,96943.91
2023-04-02T09:38:59.028Z,96950.28
2023-04-02T09:41:25.406Z,96944.69
2023-04-02T09:43:51.819Z,96955.28
2023-04-02T09:46:18.204Z,96953.63
2023-04-02T09:48:44.659Z,96963.56
2023-04-02T09:53:51.364Z,96971.38
2023-04-02T09:56:17.910Z,96959.16
2023-04-02T09:58:45.093Z,96972.38
2023-04-02T10:01:11.647Z,96968.44
2023-04-02T10:03:38.105Z,96964.06
2023-04-02T10:06:04.473Z,96964.06
2023-04-02T10:08:30.916Z,96959.53
2023-04-02T10:10:57.431Z,96963.22
2023-04-02T10:13:23.964Z,96966.50
2023-04-02T10:15:50.579Z,96975.22
2023-04-02T10:18:17.107Z,96977.84
2023-04-02T10:20:50.972Z,96973.53
2023-04-02T10:23:18.018Z,96977.41
2023-04-02T10:25:44.453Z,96981.53
2023-04-02T10:28:10.872Z,96981.75
2023-04-02T10:30:37.328Z,96979.88
2023-04-02T10:33:03.732Z,96981.13
2023-04-02T10:35:30.193Z,96988.19
2023-04-02T10:37:56.611Z,96985.34
2023-04-02T10:40:23.006Z,96989.41
2023-04-02T10:42:49.426Z,97001.59
2023-04-02T10:45:15.884Z,96998.41
2023-04-02T10:47:42.405Z,97001.47
2023-04-02T10:50:08.911Z,96996.22
2023-04-02T10:52:35.413Z,96996.75
2023-04-02T10:55:01.883Z,96992.50
2023-04-02T10:57:28.410Z,97006.31
2023-04-02T10:59:54.874Z,97004.91
2023-04-02T11:02:21.290Z,97001.03
2023-04-02T11:04:49.048Z,97008.88
2023-04-02T11:07:15.619Z,97001.44
2023-04-02T11:09:42.019Z,97011.78
2023-04-02T11:12:08.414Z,97011.28
2023-04-02T11:14:34.944Z,97014.72
2023-04-02T11:17:01.381Z,97020.50
2023-04-02T11:19:27.864Z,97016.53
2023-04-02T11:21:59.398Z,97016.28
2023-04-02T11:24:26.281Z,97018.53
2023-04-02T11:26:52.720Z,97022.31
2023-04-02T11:29:19.099Z,97030.44
2023-04-02T11:31:45.571Z,97030.69
2023-04-02T11:34:12.019Z,97031.19
2023-04-02T11:36:38.428Z,97035.28
2023-04-02T11:39:16.558Z,97034.84
2023-04-02T11:41:44.086Z,97033.09
2023-04-02T11:44:10.573Z,97044.50
2023-04-02T11:46:37.038Z,97042.84
2023-04-02T11:49:03.514Z,97050.13
2023-04-02T11:51:30.013Z,97049.91
2023-04-02T11:53:56.439Z,97054.84
2023-04-02T11:56:22.855Z,97056.06
2023-04-02T11:58:49.338Z,97048.16
2023-04-02T12:01:15.778Z,97054.13
2023-04-02T12:03:42.223Z,97054.53
2023-04-02T12:06:08.745Z,97056.66
2023-04-02T12:08:44.270Z,97058.47
2023-04-02T12:11:17.237Z,97062.78
2023-04-02T12:13:43.630Z,97060.94
2023-04-02T12:16:10.078Z,97062.19
2023-04-02T12:18:36.592Z,97067.13
2023-04-02T12:21:03.114Z,97068.81
2023-04-02T12:23:29.583Z,97066.09
2023-04-02T12:25:55.966Z,97069.00
2023-04-02T12:28:22.409Z,97073.44
2023-04-02T12:30:48.776Z,97062.38
2023-04-02T12:33:15.200Z,97065.34
2023-04-02T12:35:41.738Z,97060.72
2023-04-02T12:38:08.217Z,97065.97
2023-04-02T12:40:35.101Z,97065.56
2023-04-02T12:43:01.772Z,97072.88
2023-04-02T12:45:29.564Z,97067.50
2023-04-02T12:47:56.495Z,97066.03
2023-04-02T12:50:22.933Z,97078.13
2023-04-02T12:52:49.349Z,97081.88
2023-04-02T12:55:15.862Z,97082.75
2023-04-02T12:57:42.423Z,97083.25
2023-04-02T13:00:09.031Z,97082.84
2023-04-02T13:02:35.511Z,97091.59
2023-04-02T13:05:03.854Z,97088.72
2023-04-02T13:07:30.294Z,97088.75
2023-04-02T13:09:58.663Z,97093.28
2023-04-02T13:12:25.064Z,97089.59
2023-04-02T13:14:51.564Z,97086.69
2023-04-02T13:17:18.110Z,97086.91
2023-04-02T13:19:44.581Z,97088.38
2023-04-02T13:24:51.342Z,97084.06
2023-04-02T13:27:19.530Z,97083.03
2023-04-02T13:29:46.057Z,97078.47
2023-04-02T13:32:12.439Z,97082.19
2023-04-02T13:34:38.840Z,97080.53
2023-04-02T13:37:05.292Z,97078.06
2023-04-02T13:39:31.822Z,97077.19
2023-04-02T13:42:00.766Z,97080.28
2023-04-02T13:44:27.290Z,97074.25
2023-04-02T13:46:53.792Z,97078.41
2023-04-02T13:49:20.251Z,97076.09
2023-04-02T13:51:46.695Z,97079.81
2023-04-02T13:54:13.148Z,97081.47
2023-04-02T13:59:19.999Z,97076.31
2023-04-02T14:01:46.558Z,97076.69
2023-04-02T14:04:13.035Z,97073.97
2023-04-02T14:06:39.504Z,97076.69
2023-04-02T14:09:05.898Z,97078.78
2023-04-02T14:11:32.356Z,97078.19
2023-04-02T14:13:58.851Z,97076.75
2023-04-02T14:16:25.355Z,97079.66
2023-04-02T14:18:51.816Z,97080.22
2023-04-02T14:21:18.202Z,97082.91
2023-04-02T14:23:44.687Z,97077.53
2023-04-02T14:26:11.104Z,97083.06
2023-04-02T14:28:37.526Z,97083.66
2023-04-02T14:31:04.110Z,97086.97
2023-04-02T14:33:30.524Z,97080.00
2023-04-02T14:35:57.026Z,97087.50
2023-04-02T14:38:23.533Z,97083.84
2023-04-02T14:40:49.974Z,97088.13
2023-04-02T14:43:16.469Z,97090.56
2023-04-02T14:45:42.919Z,97089.00
2023-04-02T14:48:09.381Z,97091.22
2023-04-02T14:50:35.969Z,97086.19
2023-04-02T14:53:02.574Z,97085.72
2023-04-02T14:55:28.993Z,97083.81
2023-04-02T14:57:55.473Z,97078.22
2023-04-02T15:00:21.932Z,97080.13
2023-04-02T15:02:48.392Z,97072.94
2023-04-02T15:05:17.551Z,97077.56
2023-04-02T15:07:45.030Z,97080.06
2023-04-02T15:10:12.619Z,97084.16
2023-04-02T15:12:39.105Z,97080.13
2023-04-02T15:15:05.594Z,97085.78
2023-04-02T15:17:32.178Z,97089.09
2023-04-02T15:19:58.637Z,97090.22
2023-04-02T15:22:25.247Z,97094.06
2023-04-02T15:24:51.654Z,97084.75
2023-04-02T15:27:24.353Z,97088.88
2023-04-02T15:29:52.130Z,97093.59
2023-04-02T15:32:18.563Z,97094.81
2023-04-02T15:34:44.985Z,97093.16
2023-04-02T15:39:51.879Z,97098.75
2023-04-02T15:42:18.332Z,97099.13
2023-04-02T15:44:44.798Z,97098.09
2023-04-02T15:47:11.263Z,97099.53
2023-04-02T15:49:37.718Z,97097.63
2023-04-02T15:52:04.162Z,97096.81
2023-04-02T15:54:30.605Z,97105.72
2023-04-02T15:56:57.035Z,97103.03
2023-04-02T15:59:23.421Z,97104.44
2023-04-02T16:01:49.803Z,97113.53
2023-04-02T16:04:18.158Z,97105.41
2023-04-02T16:09:26.303Z,97112.53
2023-04-02T16:11:52.794Z,97108.75
2023-04-02T16:14:19.313Z,97109.59
2023-04-02T16:16:45.786Z,97113.34
2023-04-02T16:19:15.829Z,97116.13
2023-04-02T16:21:43.332Z,97117.78
2023-04-02T16:24:09.796Z,97115.59
2023-04-02T16:26:36.229Z,97114.47
2023-04-02T16:29:02.638Z,97119.63
2023-04-02T16:31:29.131Z,97118.75
2023-04-02T16:33:55.527Z,97130.84
2023-04-02T16:36:22.037Z,97127.91
2023-04-02T16:38:48.604Z,97126.59
2023-04-02T16:41:14.992Z,97129.81
2023-04-02T16:43:41.469Z,97133.44
2023-04-02T16:46:07.925Z,97137.34
2023-04-02T16:48:39.081Z,97138.91
2023-04-02T16:51:05.529Z,97153.31
2023-04-02T16:53:31.886Z,97149.53
2023-04-02T16:55:58.374Z,97149.84
2023-04-02T16:58:24.827Z,97159.03
2023-04-02T17:00:51.208Z,97161.34
2023-04-02T17:03:17.750Z,97165.22
2023-04-02T17:05:44.253Z,97167.41
2023-04-02T17:08:12.863Z,97163.38
2023-04-02T17:10:39.308Z,97171.59
2023-04-02T17:13:05.688Z,97167.28
2023-04-02T17:15:32.053Z,97179.38
2023-04-02T17:17:58.478Z,97184.81
2023-04-02T17:20:24.862Z,97191.06
2023-04-02T17:22:51.222Z,97193.56
2023-04-02T17:31:03.790Z,97199.06
2023-04-02T17:39:11.016Z,97217.19
2023-04-02T17:41:37.469Z,97212.38
2023-04-02T17:44:09.267Z,97217.78
2023-04-02T17:46:35.708Z,97218.63
2023-04-02T17:49:02.145Z,97213.25
2023-04-02T17:51:28.534Z,97223.00
2023-04-02T17:53:54.946Z,97221.13
2023-04-02T17:56:21.455Z,97227.38
2023-04-02T17:58:47.880Z,97229.09
2023-04-02T18:01:14.419Z,97229.50
2023-04-02T18:03:40.957Z,97231.16
2023-04-02T18:06:08.773Z,97227.03
2023-04-02T18:08:35.288Z,97230.34
2023-04-02T18:11:01.740Z,97224.75
2023-04-02T18:13:28.182Z,97227.88
2023-04-02T18:15:54.544Z,97222.31
2023-04-02T18:18:28.135Z,97229.94
2023-04-02T18:20:54.623Z,97223.94
2023-04-02T18:23:21.161Z,97233.47
2023-04-02T18:25:47.591Z,97234.28
2023-04-02T18:28:14.863Z,97240.50
2023-04-02T18:30:53.797Z,97241.94
2023-04-02T18:33:20.770Z,97247.13
2023-04-02T18:35:47.263Z,97250.63
2023-04-02T18:38:13.754Z,97252.09
2023-04-02T18:40:40.143Z,97247.31
2023-04-02T18:43:06.576Z,97257.28
2023-04-02T18:45:32.977Z,97266.78
2023-04-02T18:47:59.479Z,97264.28
2023-04-02T18:50:25.976Z,97263.88
2023-04-02T18:52:52.430Z,97269.69
2023-04-02T18:55:18.802Z,97264.91
2023-04-02T18:57:45.202Z,97275.44
2023-04-02T19:00:11.624Z,97269.47
2023-04-02T19:02:38.131Z,97275.06
2023-04-02T19:05:04.576Z,97274.63
2023-04-02T19:07:30.971Z,97279.19
2023-04-02T19:09:57.366Z,97279.00
2023-04-02T19:12:23.850Z,97281.88
2023-04-02T19:14:51.115Z,97284.56
2023-04-02T19:17:18.953Z,97287.69
2023-04-02T19:19:45.420Z,97297.63
2023-04-02T19:22:11.845Z,97298.03
2023-04-02T19:24:38.286Z,97298.03
2023-04-02T19:27:04.653Z,97300.09
2023-04-02T19:29:32.217Z,97311.09
2023-04-02T19:31:58.755Z,97307.56
2023-04-02T19:34:25.230Z,97304.06
2023-04-02T19:36:51.621Z,97308.19
2023-04-02T19:39:18.037Z,97314.81
2023-04-02T19:41:44.473Z,97314.19
2023-04-02T19:44:11.828Z,97317.94
2023-04-02T19:46:39.418Z,97318.34
2023-04-02T19:49:05.851Z,97317.91
2023-04-02T19:51:32.367Z,97318.75
2023-04-02T19:53:58.844Z,97321.84
2023-04-02T19:56:25.345Z,97314.19
2023-04-02T19:58:51.864Z,97316.69
2023-04-02T20:01:18.335Z,97324.31
2023-04-02T20:03:44.857Z,97323.09
2023-04-02T20:06:11.435Z,97319.56
2023-04-02T20:08:37.855Z,97322.88
2023-04-02T20:11:04.293Z,97329.72
2023-04-02T20:13:30.702Z,97329.13
2023-04-02T20:15:57.084Z,97331.59
2023-04-02T20:18:23.610Z,97325.38
2023-04-02T20:23:30.763Z,97333.03
2023-04-02T20:25:57.250Z,97338.03
2023-04-02T20:28:23.633Z,97336.34
2023-04-02T20:30:50.268Z,97333.03
2023-04-02T20:33:16.954Z,97334.09
2023-04-02T20:35:43.494Z,97337.38
2023-04-02T20:38:09.998Z,97338.19
2023-04-02T20:40:36.581Z,97338.03
2023-04-02T20:43:03.147Z,97344.22
2023-04-02T20:45:29.564Z,97346.69
2023-04-02T20:47:56.058Z,97345.03
2023-04-02T20:50:22.528Z,97347.53
2023-04-02T20:52:48.996Z,97358.94
2023-04-02T20:55:16.030Z,97356.63
2023-04-02T20:57:43.200Z,97354.78
2023-04-02T21:00:09.914Z,97348.34
2023-04-02T21:02:37.870Z,97352.72
2023-04-02T21:05:04.479Z,97351.69
2023-04-02T21:07:35.649Z,97351.25
2023-04-02T21:10:02.076Z,97349.81
2023-04-02T21:12:28.584Z,97353.75
2023-04-02T21:14:54.973Z,97352.69
2023-04-02T21:17:21.399Z,97355.00
2023-04-02T21:19:47.837Z,97353.72
2023-04-02T21:22:14.296Z,97355.00
2023-04-02T21:24:40.752Z,97357.25
2023-04-02T21:27:07.197Z,97353.75
2023-04-02T21:29:33.675Z,97362.03
2023-04-02T21:32:03.397Z,97358.91
2023-04-02T21:34:34.850Z,97357.25
2023-04-02T21:37:01.277Z,97360.34
2023-04-02T21:39:27.723Z,97356.84
2023-04-02T21:41:54.140Z,97356.84
2023-04-02T21:44:20.560Z,97359.13
2023-04-02T21:46:47.044Z,97360.38
2023-04-02T21:49:13.475Z,97355.81
2023-04-02T21:51:40.028Z,97368.00
2023-04-02T21:54:06.523Z,97359.31
2023-04-02T21:56:32.981Z,97361.81
2023-04-02T21:58:59.388Z,97358.50
2023-04-02T22:01:27.708Z,97360.34
2023-04-02T22:03:54.712Z,97362.22
2023-04-02T22:06:21.250Z,97367.81
2023-04-02T22:08:47.686Z,97365.13
2023-04-02T22:11:15.541Z,97364.91
2023-04-02T22:13:42.053Z,97369.47
2023-04-02T22:18:58.296Z,97366.34
2023-04-02T22:21:24.739Z,97364.72
2023-04-02T22:23:51.202Z,97363.84
2023-04-02T22:26:17.622Z,97362.41
2023-04-02T22:28:44.030Z,97354.53
2023-04-02T22:31:10.514Z,97354.75
2023-04-02T22:33:37.027Z,97346.88
2023-04-02T22:36:03.559Z,97353.28
2023-04-02T22:38:30.053Z,97355.97
2023-04-02T22:40:57.457Z,97359.06
2023-04-02T22:43:23.987Z,97358.25
2023-04-02T22:45:50.505Z,97354.31
2023-04-02T22:48:17.010Z,97351.84
2023-04-02T22:50:43.422Z,97362.81
2023-04-02T22:53:09.871Z,97347.28
2023-04-02T22:58:20.505Z,97349.56
2023-04-02T23:00:46.938Z,97347.88
2023-04-02T23:03:13.412Z,97341.91
2023-04-02T23:05:39.918Z,97336.53
2023-04-02T23:08:06.386Z,97343.28
2023-04-02T23:10:32.832Z,97332.78
2023-04-02T23:12:59.297Z,97327.41
2023-04-02T23:15:25.759Z,97338.97
2023-04-02T23:17:52.276Z,97326.16
2023-04-02T23:20:18.829Z,97328.16
2023-04-02T23:22:45.281Z,97330.84
2023-04-02T23:25:11.779Z,97326.75
2023-04-02T23:27:38.261Z,97329.44
2023-04-02T23:30:04.660Z,97322.19
2023-04-02T23:32:31.182Z,97321.16
2023-04-02T23:34:57.762Z,97318.09
2023-04-02T23:37:24.136Z,97318.09
2023-04-02T23:39:52.427Z,97316.38
2023-04-02T23:42:18.901Z,97313.69
2023-04-02T23:44:45.401Z,97311.81
2023-04-02T23:47:11.973Z,97312.03
2023-04-02T23:49:38.500Z,97315.41
2023-04-02T23:52:05.021Z,97303.75
2023-04-02T23:54:31.505Z,97309.59
2023-04-02T23:56:57.948Z,97311.28
2023-04-02T23:59:27.367Z,97305.25
